Time;durP1;ratioP1;P1;durP2;ratioP2;P2;SDS_P1;SDS_P2;PMS_P1;PMS_P2;Temp;Humidity;BMP_temperature;BMP_pressure;BME280_temperature;BME280_humidity;BME280_pressure;Samples;Min_cycle;Max_cycle;Signal;HPM_P1;HPM_P2
2022/10/07 00:00:34;;;;;;;11.33;5.30;;;7.20;99.90;;;;;;4370941;28;656211;-69
2022/10/07 00:03:21;;;;;;;11.63;5.40;;;7.20;99.90;;;;;;4353983;28;656735;-69
2022/10/07 00:06:11;;;;;;;10.90;4.73;;;7.20;99.90;;;;;;4372353;28;658311;-70
2022/10/07 00:09:00;;;;;;;13.07;4.90;;;7.20;99.90;;;;;;4349208;28;656838;-69
2022/10/07 00:11:47;;;;;;;12.73;5.10;;;7.10;99.90;;;;;;4354241;28;657205;-70
2022/10/07 00:14:36;;;;;;;12.83;5.17;;;7.10;99.90;;;;;;4373402;28;656702;-69
2022/10/07 00:17:23;;;;;;;12.63;5.03;;;7.00;99.90;;;;;;4346939;28;657243;-70
2022/10/07 00:20:10;;;;;;;14.23;5.00;;;7.00;99.90;;;;;;4353123;28;657816;-70
2022/10/07 00:22:58;;;;;;;12.67;4.90;;;7.00;99.90;;;;;;4370945;28;657723;-70
2022/10/07 00:25:45;;;;;;;10.97;4.13;;;6.90;99.90;;;;;;4355010;28;656605;-70
2022/10/07 00:28:32;;;;;;;13.70;4.63;;;6.90;99.90;;;;;;4375741;28;656459;-69
2022/10/07 00:31:22;;;;;;;14.83;4.30;;;7.00;99.90;;;;;;4372019;28;656629;-70
2022/10/07 00:34:10;;;;;;;11.90;4.63;;;7.00;99.90;;;;;;4342947;28;656761;-70
2022/10/07 00:36:58;;;;;;;9.73;3.63;;;7.00;99.90;;;;;;4346189;28;657399;-70
2022/10/07 00:39:45;;;;;;;7.53;3.90;;;7.00;99.90;;;;;;4361801;28;655295;-70
2022/10/07 00:42:34;;;;;;;8.37;3.73;;;7.00;99.90;;;;;;4373450;28;655551;-70
2022/10/07 00:45:21;;;;;;;7.97;3.57;;;7.00;99.90;;;;;;4354121;28;655888;-70
2022/10/07 00:48:10;;;;;;;10.63;4.07;;;7.00;99.90;;;;;;4363493;28;655498;-69
2022/10/07 00:50:58;;;;;;;12.27;3.43;;;7.00;99.90;;;;;;4348230;28;657047;-70
2022/10/07 00:53:46;;;;;;;8.80;3.90;;;6.90;99.90;;;;;;4353269;28;656794;-70
2022/10/07 00:56:33;;;;;;;7.20;3.30;;;6.90;99.90;;;;;;4375158;28;656090;-70
2022/10/07 00:59:21;;;;;;;8.93;3.50;;;6.90;99.90;;;;;;4351043;28;656125;-70
2022/10/07 01:02:08;;;;;;;9.10;3.27;;;6.80;99.90;;;;;;4367820;28;656770;-70
2022/10/07 01:04:58;;;;;;;12.90;3.43;;;6.80;99.90;;;;;;4346395;28;655312;-70
2022/10/07 01:07:48;;;;;;;7.73;3.03;;;6.70;99.90;;;;;;4352821;28;656707;-70
2022/10/07 01:10:39;;;;;;;11.57;3.27;;;6.70;99.90;;;;;;4358518;28;656171;-70
2022/10/07 01:13:28;;;;;;;5.83;3.30;;;6.60;99.90;;;;;;4349795;28;656642;-70
2022/10/07 01:16:20;;;;;;;12.07;3.77;;;6.60;99.90;;;;;;4345779;28;655529;-70
2022/10/07 01:19:13;;;;;;;11.15;3.38;;;6.60;99.90;;;;;;4352869;28;657301;-70
2022/10/07 01:22:08;;;;;;;9.90;3.53;;;6.50;99.90;;;;;;4328904;28;656826;-70
2022/10/07 01:25:03;;;;;;;5.23;3.17;;;6.50;99.90;;;;;;4333978;28;656010;-70
2022/10/07 01:27:53;;;;;;;6.70;3.33;;;6.50;99.90;;;;;;4334018;28;655813;-70
2022/10/07 01:30:41;;;;;;;5.27;2.83;;;6.40;99.90;;;;;;4345984;28;655660;-70
2022/10/07 01:33:30;;;;;;;7.03;3.10;;;6.40;99.90;;;;;;4376326;28;656578;-70
2022/10/07 01:36:17;;;;;;;5.83;2.70;;;6.40;99.90;;;;;;4351743;28;656638;-70
2022/10/07 01:39:07;;;;;;;7.63;3.20;;;6.40;99.90;;;;;;4374738;28;655295;-70
2022/10/07 01:41:54;;;;;;;9.05;3.08;;;6.30;99.90;;;;;;4351509;28;655592;-70
2022/10/07 01:44:43;;;;;;;8.90;2.97;;;6.30;99.90;;;;;;4355989;28;655730;-70
2022/10/07 01:47:30;;;;;;;10.13;2.67;;;6.30;99.90;;;;;;4360961;28;656186;-70
2022/10/07 01:50:18;;;;;;;6.97;2.60;;;6.30;99.90;;;;;;4379816;28;656810;-70
2022/10/07 01:53:17;;;;;;;7.20;2.60;;;6.30;99.90;;;;;;4361419;28;655819;-70
2022/10/07 01:56:13;;;;;;;6.97;2.70;;;6.20;99.90;;;;;;4353859;28;655771;-70
2022/10/07 01:59:13;;;;;;;8.30;2.90;;;6.20;99.90;;;;;;4354645;28;655364;-70
2022/10/07 02:02:03;;;;;;;14.93;2.60;;;6.20;99.90;;;;;;4339437;28;655495;-70
2022/10/07 02:04:55;;;;;;;6.40;2.77;;;6.20;99.90;;;;;;4352940;28;656649;-70
2022/10/07 02:07:47;;;;;;;8.30;2.60;;;6.30;99.90;;;;;;4348436;28;657044;-70
2022/10/07 02:10:36;;;;;;;11.67;2.53;;;6.20;99.90;;;;;;4358269;28;655099;-70
2022/10/07 02:13:27;;;;;;;8.67;2.50;;;6.20;99.90;;;;;;4354362;28;658065;-70
2022/10/07 02:16:16;;;;;;;11.53;2.40;;;6.20;99.90;;;;;;4351498;28;656051;-70
2022/10/07 02:19:08;;;;;;;7.03;2.60;;;6.20;99.90;;;;;;4352981;28;657431;-70
2022/10/07 02:21:56;;;;;;;7.60;2.17;;;6.20;99.90;;;;;;4321897;28;656064;-69
2022/10/07 02:24:43;;;;;;;3.87;1.90;;;6.10;99.90;;;;;;4377386;28;656196;-69
2022/10/07 02:27:32;;;;;;;6.53;2.00;;;6.10;99.90;;;;;;4357945;28;655690;-70
2022/10/07 02:30:20;;;;;;;8.50;2.03;;;6.10;99.90;;;;;;4376735;28;657095;-70
2022/10/07 02:33:07;;;;;;;6.50;2.00;;;6.10;99.90;;;;;;4353366;28;656978;-70
2022/10/07 02:35:56;;;;;;;10.60;2.40;;;6.10;99.90;;;;;;4375501;28;656032;-70
2022/10/07 02:38:44;;;;;;;6.97;2.17;;;6.10;99.90;;;;;;4348819;28;656981;-70
2022/10/07 02:41:34;;;;;;;6.00;2.27;;;6.20;99.90;;;;;;4356182;28;655404;-70
2022/10/07 02:44:24;;;;;;;7.93;2.30;;;6.20;99.90;;;;;;4358014;28;656425;-70
2022/10/07 02:47:15;;;;;;;7.20;2.33;;;6.30;99.90;;;;;;4352035;28;656228;-70
2022/10/07 02:50:03;;;;;;;6.93;2.60;;;6.30;99.90;;;;;;4349890;28;656426;-70
2022/10/07 02:52:54;;;;;;;6.43;2.63;;;6.30;99.90;;;;;;4350142;28;655945;-70
2022/10/07 02:55:41;;;;;;;11.13;3.20;;;6.30;99.90;;;;;;4353267;28;655688;-70
2022/10/07 02:58:29;;;;;;;10.67;2.80;;;6.40;99.90;;;;;;4371689;28;656624;-71
2022/10/07 03:01:17;;;;;;;5.53;2.53;;;6.50;99.90;;;;;;4351786;28;656785;-70
2022/10/07 03:04:05;;;;;;;5.93;3.17;;;6.40;99.90;;;;;;4368551;28;655995;-70
2022/10/07 03:06:53;;;;;;;11.93;3.87;;;6.60;99.90;;;;;;4375653;28;656182;-70
2022/10/07 03:09:42;;;;;;;9.37;3.87;;;6.60;99.90;;;;;;4358547;28;656369;-71
2022/10/07 03:12:29;;;;;;;6.70;3.30;;;6.70;99.90;;;;;;4373773;28;655619;-70
2022/10/07 03:15:16;;;;;;;9.33;3.03;;;6.60;99.90;;;;;;4352926;28;655773;-70
2022/10/07 03:18:03;;;;;;;11.83;2.67;;;6.60;99.90;;;;;;4371947;28;656147;-70
2022/10/07 03:20:52;;;;;;;11.67;3.00;;;6.60;99.90;;;;;;4353337;28;656852;-70
2022/10/07 03:23:39;;;;;;;5.90;3.00;;;6.50;99.90;;;;;;4373956;28;656258;-70
2022/10/07 03:26:27;;;;;;;11.85;3.38;;;6.60;99.90;;;;;;4356445;28;655804;-70
2022/10/07 03:29:16;;;;;;;13.70;2.87;;;6.60;99.90;;;;;;4366126;28;656980;-70
2022/10/07 03:32:03;;;;;;;10.17;2.80;;;6.50;99.90;;;;;;4375367;28;657499;-70
2022/10/07 03:34:51;;;;;;;7.40;2.93;;;6.50;99.90;;;;;;4358568;28;656819;-70
2022/10/07 03:37:38;;;;;;;17.13;3.50;;;6.60;99.90;;;;;;4372625;28;655730;-70
2022/10/07 03:40:25;;;;;;;10.07;3.73;;;6.60;99.90;;;;;;4353613;28;657476;-70
2022/10/07 03:43:14;;;;;;;11.20;3.40;;;6.60;99.90;;;;;;4372254;28;657185;-70
2022/10/07 03:46:01;;;;;;;13.47;3.93;;;6.60;99.90;;;;;;4350891;28;657499;-70
2022/10/07 03:48:49;;;;;;;10.17;4.00;;;6.50;99.90;;;;;;4370573;28;656609;-71
2022/10/07 03:51:36;;;;;;;7.40;3.80;;;6.50;99.90;;;;;;4350359;28;656837;-71
2022/10/07 03:54:23;;;;;;;14.13;4.40;;;6.50;99.90;;;;;;4371924;28;655412;-70
2022/10/07 04:00:13;;;;;;;11.10;4.20;;;6.50;99.90;;;;;;4327963;28;656472;-71
2022/10/07 04:03:01;;;;;;;13.70;4.53;;;6.50;99.90;;;;;;4354085;28;657290;-70
2022/10/07 04:05:58;;;;;;;19.13;6.13;;;6.60;99.90;;;;;;4370617;28;656639;-71
2022/10/07 04:08:45;;;;;;;15.40;5.67;;;6.60;99.90;;;;;;4327690;28;656441;-70
2022/10/07 04:11:32;;;;;;;19.57;6.83;;;6.60;99.90;;;;;;4375919;28;658087;-70
2022/10/07 04:14:20;;;;;;;17.97;8.67;;;6.60;99.90;;;;;;4371167;28;656658;-70
2022/10/07 04:17:09;;;;;;;14.13;7.50;;;6.60;99.90;;;;;;4377471;28;656717;-71
2022/10/07 04:19:56;;;;;;;14.03;7.50;;;6.60;99.90;;;;;;4350645;28;656496;-71
2022/10/07 04:22:43;;;;;;;13.97;6.80;;;6.60;99.90;;;;;;4374982;28;656854;-71
2022/10/07 04:25:33;;;;;;;11.40;6.47;;;6.60;99.90;;;;;;4348170;28;656736;-71
2022/10/07 04:28:22;;;;;;;17.60;6.53;;;6.60;99.90;;;;;;4354119;28;656859;-71
2022/10/07 04:31:11;;;;;;;10.20;6.23;;;6.60;99.90;;;;;;4370735;28;655971;-71
2022/10/07 04:34:00;;;;;;;11.73;6.50;;;6.60;99.90;;;;;;4350518;28;657262;-70
2022/10/07 04:36:48;;;;;;;13.90;5.90;;;6.60;99.90;;;;;;4350164;28;657703;-70
2022/10/07 04:39:35;;;;;;;11.15;5.85;;;6.60;99.90;;;;;;4357104;28;656369;-70
2022/10/07 04:45:27;;;;;;;12.87;5.40;;;6.60;99.90;;;;;;4320874;28;656608;-71
2022/10/07 04:48:16;;;;;;;9.33;5.20;;;6.70;99.90;;;;;;4373677;28;656440;-71
2022/10/07 04:51:06;;;;;;;13.70;4.80;;;6.70;99.90;;;;;;4350332;28;656380;-71
2022/10/07 04:53:54;;;;;;;11.93;4.60;;;6.70;99.90;;;;;;4347533;28;657036;-70
2022/10/07 04:56:41;;;;;;;11.13;4.80;;;6.80;99.90;;;;;;4353507;28;658245;-71
2022/10/07 04:59:28;;;;;;;10.18;5.03;;;7.00;99.90;;;;;;4368558;28;658453;-71
2022/10/07 05:02:15;;;;;;;10.07;5.60;;;7.10;99.90;;;;;;4351400;28;657243;-71
2022/10/07 05:05:03;;;;;;;16.50;6.27;;;7.20;99.90;;;;;;4371221;28;657477;-71
2022/10/07 05:07:52;;;;;;;13.73;7.50;;;7.30;99.90;;;;;;4360907;28;657037;-70
2022/10/07 05:10:39;;;;;;;21.20;7.57;;;7.40;99.90;;;;;;4368792;28;656281;-71
2022/10/07 05:13:27;;;;;;;10.27;5.93;;;7.50;99.90;;;;;;4353263;28;656693;-71
2022/10/07 05:16:14;;;;;;;16.37;6.30;;;7.50;99.90;;;;;;4377313;28;656004;-71
2022/10/07 05:19:01;;;;;;;12.87;5.67;;;7.70;99.90;;;;;;4358163;28;656494;-71
2022/10/07 05:21:48;;;;;;;7.77;5.07;;;7.70;99.90;;;;;;4369620;28;657746;-72
2022/10/07 05:24:37;;;;;;;8.27;4.93;;;7.90;99.90;;;;;;4354012;28;656740;-71
2022/10/07 05:27:24;;;;;;;17.80;5.33;;;8.00;99.90;;;;;;4372943;28;655868;-71
2022/10/07 05:30:12;;;;;;;8.20;4.67;;;8.10;99.90;;;;;;4352375;28;656366;-71
2022/10/07 05:33:00;;;;;;;7.57;4.63;;;8.20;99.90;;;;;;4373407;28;655990;-71
2022/10/07 05:35:47;;;;;;;9.37;5.37;;;8.30;99.90;;;;;;4352769;28;656895;-71
2022/10/07 05:38:34;;;;;;;9.30;5.13;;;8.50;99.90;;;;;;4373581;28;655330;-72
2022/10/07 05:41:22;;;;;;;9.50;4.63;;;8.70;99.90;;;;;;4351890;28;655257;-71
2022/10/07 05:44:10;;;;;;;9.37;4.30;;;8.80;99.90;;;;;;4371728;28;655606;-71
2022/10/07 05:46:57;;;;;;;7.57;4.33;;;8.80;99.90;;;;;;4364822;28;657478;-71
2022/10/07 05:49:44;;;;;;;8.77;4.23;;;9.00;99.90;;;;;;4375439;28;655665;-65
2022/10/07 05:52:32;;;;;;;10.70;4.53;;;9.10;99.90;;;;;;4350787;28;659168;-65
2022/10/07 05:55:19;;;;;;;9.70;4.27;;;9.20;99.90;;;;;;4372368;28;656887;-66
2022/10/07 05:58:07;;;;;;;9.97;4.03;;;9.30;99.90;;;;;;4357904;28;655517;-66
2022/10/07 06:00:56;;;;;;;7.47;3.97;;;9.40;99.90;;;;;;4373377;28;655333;-65
2022/10/07 06:03:43;;;;;;;7.00;4.20;;;9.60;99.90;;;;;;4348920;28;655875;-65
2022/10/07 06:06:30;;;;;;;9.37;3.77;;;9.60;99.90;;;;;;4357165;28;655695;-65
2022/10/07 06:15:30;;;;;;;10.55;3.67;;;10.10;99.90;;;;;;4324354;28;657053;-65
2022/10/07 06:18:17;;;;;;;11.30;3.80;;;10.30;99.90;;;;;;4348118;28;658948;-65
2022/10/07 06:21:04;;;;;;;14.53;4.13;;;10.40;99.90;;;;;;4371127;28;657570;-66
2022/10/07 06:23:51;;;;;;;18.40;3.83;;;10.50;99.90;;;;;;4351818;28;657709;-65
2022/10/07 06:26:41;;;;;;;14.97;3.83;;;10.70;99.90;;;;;;4369145;28;658107;-66
2022/10/07 06:29:28;;;;;;;12.23;4.70;;;10.80;99.90;;;;;;4348585;28;657999;-65
2022/10/07 06:32:17;;;;;;;13.53;5.10;;;10.90;99.90;;;;;;4360136;28;658025;-65
2022/10/07 06:35:04;;;;;;;14.20;5.70;;;11.10;99.90;;;;;;4376232;28;657786;-65
2022/10/07 06:37:52;;;;;;;12.10;5.70;;;11.30;99.90;;;;;;4352069;28;657608;-66
2022/10/07 06:40:39;;;;;;;9.33;5.30;;;11.40;99.90;;;;;;4372522;28;657597;-65
2022/10/07 06:43:26;;;;;;;15.53;5.10;;;11.60;99.90;;;;;;4351674;28;656573;-66
2022/10/07 06:46:14;;;;;;;12.10;4.70;;;11.80;99.90;;;;;;4369480;28;658789;-65
2022/10/07 06:49:02;;;;;;;7.97;4.23;;;11.90;99.90;;;;;;4348233;28;657691;-66
2022/10/07 06:51:50;;;;;;;9.23;4.47;;;12.10;99.90;;;;;;4360979;28;656448;-67
2022/10/07 06:54:37;;;;;;;7.57;3.67;;;12.10;99.90;;;;;;4368901;28;658081;-65
2022/10/07 06:57:24;;;;;;;8.07;4.23;;;12.30;99.90;;;;;;4369220;28;656897;-65
2022/10/07 07:00:13;;;;;;;5.83;3.30;;;12.50;99.90;;;;;;4343589;28;658119;-66
2022/10/07 07:03:00;;;;;;;9.70;4.00;;;12.50;99.90;;;;;;4360431;28;656428;-67
2022/10/07 07:05:50;;;;;;;10.77;3.73;;;12.70;99.90;;;;;;4368089;28;657763;-65
2022/10/07 07:08:39;;;;;;;9.53;3.97;;;12.80;99.90;;;;;;4344248;28;657902;-66
2022/10/07 07:11:35;;;;;;;10.97;4.20;;;13.00;99.90;;;;;;4349797;28;656683;-65
2022/10/07 07:14:24;;;;;;;8.83;3.83;;;13.20;99.90;;;;;;4326212;28;658099;-65
2022/10/07 07:17:11;;;;;;;11.73;4.60;;;13.30;99.90;;;;;;4348835;28;656825;-66
2022/10/07 07:19:58;;;;;;;9.47;4.43;;;13.40;99.90;;;;;;4366779;28;658105;-66
2022/10/07 07:22:48;;;;;;;11.33;4.33;;;13.50;99.90;;;;;;4351573;28;656780;-66
2022/10/07 07:25:36;;;;;;;8.03;4.37;;;13.60;99.90;;;;;;4354130;28;657802;-67
2022/10/07 07:28:23;;;;;;;12.40;4.50;;;13.70;99.90;;;;;;4370934;28;657587;-65
2022/10/07 07:31:11;;;;;;;8.40;4.20;;;13.80;99.90;;;;;;4359274;28;657729;-67
2022/10/07 07:34:00;;;;;;;9.13;4.47;;;13.90;99.90;;;;;;4373262;28;657907;-66
2022/10/07 07:36:49;;;;;;;12.27;4.70;;;14.20;99.90;;;;;;4333383;28;657831;-66
2022/10/07 07:39:38;;;;;;;7.77;5.03;;;14.40;99.90;;;;;;4330021;28;658702;-66
2022/10/07 07:42:27;;;;;;;11.83;5.03;;;14.40;99.90;;;;;;4332777;28;656248;-66
2022/10/07 07:45:14;;;;;;;8.63;4.20;;;14.50;99.90;;;;;;4352862;28;657820;-65
2022/10/07 07:48:01;;;;;;;12.87;4.80;;;14.70;99.90;;;;;;4333050;28;656759;-66
2022/10/07 07:50:48;;;;;;;10.47;5.27;;;14.90;99.90;;;;;;4349973;28;658516;-66
2022/10/07 07:53:37;;;;;;;16.93;5.47;;;15.00;99.90;;;;;;4332061;28;657734;-66
2022/10/07 07:56:25;;;;;;;13.00;5.80;;;15.10;99.90;;;;;;4353325;28;657079;-66
2022/10/07 07:59:12;;;;;;;9.37;5.73;;;15.20;99.90;;;;;;4328529;28;658477;-67
2022/10/07 08:02:01;;;;;;;10.53;5.57;;;15.20;99.90;;;;;;4349518;28;656651;-67
2022/10/07 08:04:48;;;;;;;10.73;5.90;;;15.30;99.90;;;;;;4352986;28;658448;-66
2022/10/07 08:07:35;;;;;;;12.00;5.67;;;15.20;99.90;;;;;;4333284;28;657475;-67
2022/10/07 08:10:22;;;;;;;10.00;5.90;;;15.20;99.90;;;;;;4352455;28;658134;-66
2022/10/07 08:13:11;;;;;;;13.60;6.43;;;15.40;99.90;;;;;;4347793;28;658635;-67
2022/10/07 08:15:59;;;;;;;13.47;6.27;;;15.70;99.90;;;;;;4349907;28;657714;-67
2022/10/07 08:18:47;;;;;;;10.50;6.33;;;15.80;99.90;;;;;;4331852;28;658176;-66
2022/10/07 08:21:34;;;;;;;10.93;6.27;;;15.80;99.90;;;;;;4351315;28;657932;-66
2022/10/07 08:24:23;;;;;;;14.70;6.00;;;16.00;99.90;;;;;;4334435;28;658732;-66
2022/10/07 08:27:11;;;;;;;10.87;6.17;;;16.30;99.90;;;;;;4335359;28;657699;-66
2022/10/07 08:29:59;;;;;;;14.03;7.60;;;16.50;99.90;;;;;;4355175;28;658023;-66
2022/10/07 08:32:46;;;;;;;12.00;6.50;;;16.90;99.90;;;;;;4327589;28;657527;-66
2022/10/07 08:35:33;;;;;;;14.67;6.90;;;17.00;99.90;;;;;;4352112;28;657736;-66
2022/10/07 08:38:21;;;;;;;11.93;7.00;;;16.90;99.90;;;;;;4353564;28;658502;-67
2022/10/07 08:41:16;;;;;;;12.73;7.07;;;16.90;99.90;;;;;;4374199;28;657401;-66
2022/10/07 08:44:07;;;;;;;14.83;6.70;;;17.20;99.90;;;;;;4348079;28;657496;-66
2022/10/07 08:47:00;;;;;;;13.03;6.40;;;17.40;99.90;;;;;;4340165;28;657416;-68
2022/10/07 08:49:53;;;;;;;12.63;7.00;;;17.70;99.90;;;;;;4343146;28;658548;-66
2022/10/07 08:52:45;;;;;;;12.90;7.13;;;17.90;99.90;;;;;;4330767;28;657744;-67
2022/10/07 08:55:35;;;;;;;15.50;7.50;;;18.10;99.90;;;;;;4350984;28;658171;-66
2022/10/07 08:58:37;;;;;;;12.30;7.23;;;18.30;99.90;;;;;;4347142;28;658803;-67
2022/10/07 09:01:34;;;;;;;12.67;6.70;;;18.50;99.90;;;;;;4346057;28;658318;-67
2022/10/07 09:04:32;;;;;;;14.03;6.50;;;18.80;99.90;;;;;;4348033;28;658022;-67
2022/10/07 09:07:28;;;;;;;14.97;7.87;;;19.10;99.90;;;;;;4366601;28;657969;-67
2022/10/07 09:10:26;;;;;;;12.23;7.00;;;19.00;99.90;;;;;;4335674;28;657521;-68
2022/10/07 09:13:15;;;;;;;15.03;7.70;;;19.30;99.90;;;;;;4346686;28;657862;-66
2022/10/07 09:16:04;;;;;;;11.63;6.40;;;19.40;99.90;;;;;;4340025;28;659063;-67
2022/10/07 09:18:53;;;;;;;13.87;6.63;;;19.40;99.90;;;;;;4337371;28;657875;-67
2022/10/07 09:21:43;;;;;;;9.87;6.87;;;19.80;99.90;;;;;;4361607;28;657960;-68
2022/10/07 09:24:31;;;;;;;13.73;6.80;;;19.50;99.90;;;;;;4343101;28;656952;-68
2022/10/07 09:27:18;;;;;;;14.60;7.07;;;19.90;99.90;;;;;;4369617;28;657785;-67
2022/10/07 09:30:06;;;;;;;14.37;6.73;;;20.10;99.90;;;;;;4344279;28;657549;-68
2022/10/07 09:32:54;;;;;;;14.20;6.67;;;20.40;99.90;;;;;;4366401;28;657310;-67
2022/10/07 09:35:41;;;;;;;15.30;6.80;;;20.40;99.90;;;;;;4349539;28;657581;-67
2022/10/07 09:38:34;;;;;;;11.17;6.27;;;20.40;99.90;;;;;;4367424;28;658170;-67
2022/10/07 09:41:26;;;;;;;9.37;5.77;;;20.50;99.90;;;;;;4348971;28;658846;-68
2022/10/07 09:44:25;;;;;;;16.17;5.97;;;20.70;99.90;;;;;;4347965;28;656736;-67
2022/10/07 09:47:15;;;;;;;10.90;6.37;;;21.20;99.90;;;;;;4347545;28;657664;-67
2022/10/07 09:50:02;;;;;;;12.50;6.10;;;21.10;99.90;;;;;;4344744;28;658601;-67
2022/10/07 09:52:54;;;;;;;15.73;6.27;;;21.50;99.90;;;;;;4364820;28;658259;-67
2022/10/07 09:55:43;;;;;;;12.30;5.70;;;21.90;99.90;;;;;;4343237;28;658509;-67
2022/10/07 09:58:31;;;;;;;12.93;5.63;;;22.00;99.90;;;;;;4346407;28;657487;-68
2022/10/07 10:01:18;;;;;;;9.97;5.87;;;22.10;99.90;;;;;;4363862;28;658080;-67
2022/10/07 10:04:07;;;;;;;11.90;5.60;;;22.40;99.90;;;;;;4348286;28;656406;-68
2022/10/07 10:06:55;;;;;;;11.03;5.80;;;22.90;99.90;;;;;;4364818;28;658803;-67
2022/10/07 10:09:48;;;;;;;11.10;5.83;;;22.60;99.90;;;;;;4341108;28;658842;-67
2022/10/07 10:12:37;;;;;;;16.00;5.90;;;22.20;99.90;;;;;;4349956;28;657670;-68
2022/10/07 10:15:27;;;;;;;13.87;5.90;;;22.00;99.90;;;;;;4374827;28;657179;-67
2022/10/07 10:18:38;;;;;;;13.57;5.70;;;22.00;99.90;;;;;;4352018;28;657519;-67
2022/10/07 10:21:29;;;;;;;12.90;5.90;;;21.90;99.90;;;;;;4330141;28;658717;-68
2022/10/07 10:24:16;;;;;;;10.50;5.63;;;22.40;99.90;;;;;;4356659;28;657842;-67
2022/10/07 10:27:04;;;;;;;12.93;6.20;;;22.50;99.90;;;;;;4377418;28;658138;-67
2022/10/07 10:29:55;;;;;;;10.57;5.80;;;22.70;99.90;;;;;;4355433;28;658065;-69
2022/10/07 10:32:50;;;;;;;11.10;5.47;;;22.60;99.90;;;;;;4350903;28;658677;-68
2022/10/07 10:35:40;;;;;;;10.55;5.50;;;23.50;99.90;;;;;;4351837;28;657330;-67
2022/10/07 10:38:34;;;;;;;16.07;5.33;;;23.60;99.90;;;;;;4346441;28;658282;-67
2022/10/07 10:41:24;;;;;;;12.25;5.20;;;23.80;99.90;;;;;;4325952;28;658793;-67
2022/10/07 10:44:32;;;;;;;11.68;5.10;;;24.20;99.90;;;;;;4351575;28;658563;-67
2022/10/07 10:47:26;;;;;;;15.55;5.18;;;24.20;96.80;;;;;;4368080;28;657906;-69
2022/10/07 10:50:16;;;;;;;8.57;5.00;;;24.00;96.40;;;;;;4349525;28;658109;-68
2022/10/07 10:53:07;;;;;;;9.30;4.88;;;24.10;98.70;;;;;;4349102;28;658205;-68
2022/10/07 10:56:03;;;;;;;7.45;4.60;;;24.40;95.50;;;;;;4351358;28;657203;-68
2022/10/07 10:58:57;;;;;;;10.15;5.47;;;25.00;93.40;;;;;;4336791;28;656586;-69
2022/10/07 11:01:45;;;;;;;9.77;5.20;;;24.90;92.80;;;;;;4347241;28;657421;-69
2022/10/07 11:04:42;;;;;;;8.40;4.13;;;25.00;92.60;;;;;;4369867;28;657778;-68
2022/10/07 11:07:31;;;;;;;9.18;4.05;;;24.80;89.90;;;;;;4354533;28;656945;-68
2022/10/07 11:10:20;;;;;;;12.85;4.57;;;23.70;91.40;;;;;;4349140;28;656838;-67
2022/10/07 11:13:17;;;;;;;7.78;4.13;;;24.30;92.10;;;;;;4343869;28;658756;-68
2022/10/07 11:16:07;;;;;;;6.93;3.80;;;24.70;89.10;;;;;;4373351;28;656734;-68
2022/10/07 11:18:56;;;;;;;6.65;4.07;;;24.90;88.30;;;;;;4368072;28;656322;-68
2022/10/07 11:21:45;;;;;;;7.22;3.90;;;25.20;85.50;;;;;;4345045;28;656856;-69
2022/10/07 11:24:34;;;;;;;9.85;3.83;;;25.60;83.30;;;;;;4347610;28;657590;-68
2022/10/07 11:27:23;;;;;;;8.13;4.20;;;25.80;84.50;;;;;;4352101;28;656370;-68
2022/10/07 11:30:16;;;;;;;13.63;3.90;;;25.80;83.40;;;;;;4348726;28;656477;-69
2022/10/07 11:33:05;;;;;;;6.82;3.97;;;25.70;83.70;;;;;;4336930;28;658756;-69
2022/10/07 11:35:56;;;;;;;7.18;3.63;;;25.70;75.60;;;;;;4356637;28;657194;-68
2022/10/07 11:38:44;;;;;;;11.75;3.55;;;25.40;77.70;;;;;;4353020;28;657874;-68
2022/10/07 11:41:33;;;;;;;8.60;3.15;;;24.60;74.10;;;;;;4351428;28;658077;-68
2022/10/07 11:44:23;;;;;;;6.35;3.33;;;25.00;77.80;;;;;;4349408;28;656291;-69
2022/10/07 11:47:11;;;;;;;6.00;3.65;;;25.40;80.00;;;;;;4359987;28;656948;-69
2022/10/07 11:50:01;;;;;;;10.43;3.88;;;25.90;80.60;;;;;;4363255;28;658391;-68
2022/10/07 11:52:49;;;;;;;8.60;3.55;;;25.40;73.90;;;;;;4342940;28;658135;-68
2022/10/07 11:55:40;;;;;;;11.35;4.13;;;25.90;71.60;;;;;;4345023;28;656684;-69
2022/10/07 11:58:30;;;;;;;6.53;3.92;;;26.00;74.00;;;;;;4342688;28;658036;-68
2022/10/07 12:01:54;;;;;;;6.03;3.67;;;26.30;75.80;;;;;;4349905;28;658034;-69
2022/10/07 12:04:41;;;;;;;8.10;3.50;;;26.60;72.40;;;;;;4325749;28;656723;-69
2022/10/07 12:07:56;;;;;;;6.10;3.65;;;26.20;74.30;;;;;;4376025;28;656844;-69
2022/10/07 12:10:45;;;;;;;5.95;3.63;;;27.30;70.10;;;;;;4349572;28;656671;-68
2022/10/07 12:13:37;;;;;;;6.75;4.20;;;26.50;65.50;;;;;;4348137;28;657045;-68
2022/10/07 12:16:41;;;;;;;9.05;3.10;;;25.80;70.10;;;;;;4348622;28;656488;-68
2022/10/07 12:19:28;;;;;;;9.65;4.28;;;25.00;73.30;;;;;;4344849;28;656784;-69
2022/10/07 12:22:17;;;;;;;6.88;3.45;;;25.90;70.40;;;;;;4353268;28;656627;-69
2022/10/07 12:25:28;;;;;;;6.80;3.95;;;26.50;70.50;;;;;;4368339;28;656562;-69
2022/10/07 12:28:26;;;;;;;8.50;3.55;;;26.80;67.10;;;;;;4337977;28;656301;-69
2022/10/07 12:31:45;;;;;;;7.30;3.85;;;26.30;65.80;;;;;;4350788;28;656987;-69
2022/10/07 12:34:37;;;;;;;7.80;3.50;;;25.50;71.90;;;;;;4326200;28;656650;-69
2022/10/07 12:37:48;;;;;;;9.93;3.67;;;26.10;68.70;;;;;;4365539;28;656951;-69
2022/10/07 12:40:36;;;;;;;8.40;3.50;;;26.40;69.60;;;;;;4327070;28;656927;-69
2022/10/07 12:43:33;;;;;;;7.75;3.70;;;26.50;66.50;;;;;;4373884;28;657253;-68
2022/10/07 12:46:21;;;;;;;5.55;3.00;;;26.40;64.90;;;;;;4349964;28;656709;-69
2022/10/07 12:49:14;;;;;;;6.15;3.22;;;27.00;66.10;;;;;;4368063;28;657901;-68
2022/10/07 12:52:04;;;;;;;10.57;3.45;;;27.20;63.70;;;;;;4342621;28;656509;-68
2022/10/07 12:54:52;;;;;;;10.18;3.50;;;26.90;67.00;;;;;;4351259;28;658119;-67
2022/10/07 12:57:40;;;;;;;8.48;3.42;;;26.50;68.90;;;;;;4369696;28;658561;-68
2022/10/07 13:00:28;;;;;;;7.18;3.13;;;27.00;65.10;;;;;;4346881;28;657055;-69
2022/10/07 13:04:04;;;;;;;5.07;2.80;;;27.60;64.40;;;;;;4351289;28;656174;-68
2022/10/07 13:07:39;;;;;;;6.43;2.75;;;27.80;61.70;;;;;;4307813;28;656458;-68
2022/10/07 13:10:46;;;;;;;5.28;3.13;;;28.60;60.60;;;;;;4302679;28;656494;-68
2022/10/07 13:13:35;;;;;;;4.82;2.90;;;28.70;57.30;;;;;;4351801;28;657104;-68
2022/10/07 13:16:26;;;;;;;4.85;2.78;;;29.10;58.00;;;;;;4344479;28;657737;-67
2022/10/07 13:19:18;;;;;;;3.60;2.70;;;29.90;54.20;;;;;;4344832;28;657852;-68
2022/10/07 13:22:08;;;;;;;4.53;2.50;;;30.40;52.80;;;;;;4325212;28;656828;-69
2022/10/07 13:24:56;;;;;;;6.88;2.90;;;29.40;53.90;;;;;;4352085;28;656489;-69
2022/10/07 13:27:46;;;;;;;6.30;3.35;;;30.10;53.30;;;;;;4364390;28;657945;-68
2022/10/07 13:30:36;;;;;;;9.00;2.90;;;30.10;51.90;;;;;;4342332;28;656858;-68
2022/10/07 13:33:29;;;;;;;6.13;2.92;;;30.30;52.10;;;;;;4341175;28;656877;-68
2022/10/07 13:36:18;;;;;;;9.70;3.08;;;31.20;50.10;;;;;;4352778;28;657003;-68
2022/10/07 13:39:12;;;;;;;7.03;2.80;;;30.20;50.00;;;;;;4348387;28;657013;-68
2022/10/07 13:42:01;;;;;;;11.27;3.22;;;30.60;50.00;;;;;;4350474;28;656433;-68
2022/10/07 13:44:48;;;;;;;7.50;3.13;;;31.00;49.90;;;;;;4348041;28;657521;-68
2022/10/07 13:47:36;;;;;;;8.73;3.28;;;30.60;49.70;;;;;;4348386;28;656428;-68
2022/10/07 13:50:26;;;;;;;4.75;2.65;;;31.10;48.20;;;;;;4369681;28;657222;-68
2022/10/07 13:53:15;;;;;;;6.18;3.10;;;31.80;47.60;;;;;;4350620;28;658289;-68
2022/10/07 13:56:08;;;;;;;5.70;3.22;;;32.50;46.50;;;;;;4344962;28;657337;-69
2022/10/07 13:58:55;;;;;;;16.27;3.25;;;32.40;44.70;;;;;;4332807;28;656510;-69
2022/10/07 14:01:43;;;;;;;7.90;3.33;;;30.20;48.80;;;;;;4371884;28;659890;-68
2022/10/07 14:04:31;;;;;;;5.57;2.80;;;30.50;48.90;;;;;;4356505;28;656229;-69
2022/10/07 14:07:21;;;;;;;9.05;3.20;;;31.20;46.90;;;;;;4370436;28;656696;-68
2022/10/07 14:10:11;;;;;;;7.55;3.22;;;32.40;46.30;;;;;;4346209;28;658655;-68
2022/10/07 14:12:59;;;;;;;7.75;3.08;;;33.00;44.40;;;;;;4356308;28;657568;-68
2022/10/07 14:15:48;;;;;;;4.22;2.85;;;33.90;43.70;;;;;;4353082;28;656538;-68
2022/10/07 14:18:35;;;;;;;8.77;3.25;;;33.30;43.50;;;;;;4357291;28;656603;-69
2022/10/07 14:21:22;;;;;;;9.77;3.22;;;33.70;43.10;;;;;;4377746;28;656721;-68
2022/10/07 14:24:11;;;;;;;9.35;3.35;;;34.40;42.40;;;;;;4369420;28;656317;-67
2022/10/07 14:26:59;;;;;;;10.40;3.23;;;35.00;41.80;;;;;;4348081;28;658059;-68
2022/10/07 14:29:47;;;;;;;9.00;2.90;;;34.90;39.50;;;;;;4350440;28;657866;-69
2022/10/07 14:35:39;;;;;;;8.55;3.80;;;34.80;39.70;;;;;;4347378;28;656783;-67
2022/10/07 14:38:26;;;;;;;8.63;3.70;;;34.90;40.10;;;;;;4346460;28;656291;-68
2022/10/07 14:41:16;;;;;;;4.28;2.72;;;35.10;39.40;;;;;;4369967;28;657044;-68
2022/10/07 14:44:03;;;;;;;4.82;2.90;;;34.80;39.30;;;;;;4353308;28;657109;-68
2022/10/07 14:46:50;;;;;;;5.97;2.90;;;34.80;39.40;;;;;;4350207;28;657225;-69